sensor_id;sensor_type;location;lat;lon;timestamp;pressure;altitude;pressure_sealevel;temperature;humidity
18275;BME280;19470;49.322;7.218;2023-01-16T00:02:12;97341.13;;;8.95;100.00
18275;BME280;19470;49.322;7.218;2023-01-16T00:04:39;97314.44;;;9.07;100.00
18275;BME280;19470;49.322;7.218;2023-01-16T00:07:07;97320.50;;;8.97;100.00
18275;BME280;19470;49.322;7.218;2023-01-16T00:09:33;97313.66;;;8.96;100.00
18275;BME280;19470;49.322;7.218;2023-01-16T00:12:00;97323.63;;;8.38;100.00
18275;BME280;19470;49.322;7.218;2023-01-16T00:14:28;97318.38;;;8.53;100.00
18275;BME280;19470;49.322;7.218;2023-01-16T00:16:55;97306.75;;;8.44;100.00
18275;BME280;19470;49.322;7.218;2023-01-16T00:19:21;97288.28;;;8.49;100.00
18275;BME280;19470;49.322;7.218;2023-01-16T00:21:48;97293.56;;;8.64;100.00
18275;BME280;19470;49.322;7.218;2023-01-16T00:24:16;97285.41;;;8.71;100.00
18275;BME280;19470;49.322;7.218;2023-01-16T00:26:42;97284.34;;;8.98;100.00
18275;BME280;19470;49.322;7.218;2023-01-16T00:29:09;97263.19;;;8.36;100.00
18275;BME280;19470;49.322;7.218;2023-01-16T00:31:35;97280.88;;;8.46;100.00
18275;BME280;19470;49.322;7.218;2023-01-16T00:34:02;97270.06;;;8.37;100.00
18275;BME280;19470;49.322;7.218;2023-01-16T00:36:28;97272.34;;;8.18;100.00
18275;BME280;19470;49.322;7.218;2023-01-16T00:38:55;97268.75;;;8.60;100.00
18275;BME280;19470;49.322;7.218;2023-01-16T00:41:22;97259.03;;;8.71;100.00
18275;BME280;19470;49.322;7.218;2023-01-16T00:43:49;97252.69;;;8.77;100.00
18275;BME280;19470;49.322;7.218;2023-01-16T00:46:15;97242.41;;;8.81;100.00
18275;BME280;19470;49.322;7.218;2023-01-16T00:48:42;97232.63;;;8.76;100.00
18275;BME280;19470;49.322;7.218;2023-01-16T00:51:08;97221.75;;;9.18;100.00
18275;BME280;19470;49.322;7.218;2023-01-16T00:53:35;97227.59;;;8.54;100.00
18275;BME280;19470;49.322;7.218;2023-01-16T00:56:01;97224.38;;;8.22;100.00
18275;BME280;19470;49.322;7.218;2023-01-16T00:58:29;97215.97;;;8.30;100.00
18275;BME280;19470;49.322;7.218;2023-01-16T01:00:57;97207.78;;;8.92;100.00
18275;BME280;19470;49.322;7.218;2023-01-16T01:03:23;97196.16;;;9.04;100.00
18275;BME280;19470;49.322;7.218;2023-01-16T01:05:50;97200.16;;;8.81;100.00
18275;BME280;19470;49.322;7.218;2023-01-16T01:08:16;97194.88;;;8.60;100.00
18275;BME280;19470;49.322;7.218;2023-01-16T01:10:43;97211.75;;;9.00;100.00
18275;BME280;19470;49.322;7.218;2023-01-16T01:13:10;97185.88;;;8.31;100.00
18275;BME280;19470;49.322;7.218;2023-01-16T01:15:38;97172.47;;;8.53;100.00
18275;BME280;19470;49.322;7.218;2023-01-16T01:18:04;97169.53;;;8.75;100.00
18275;BME280;19470;49.322;7.218;2023-01-16T01:20:31;97173.22;;;8.74;100.00
18275;BME280;19470;49.322;7.218;2023-01-16T01:22:58;97165.28;;;8.99;100.00
18275;BME280;19470;49.322;7.218;2023-01-16T01:25:24;97151.59;;;8.77;100.00
18275;BME280;19470;49.322;7.218;2023-01-16T01:27:51;97147.72;;;9.39;100.00
18275;BME280;19470;49.322;7.218;2023-01-16T01:30:19;97147.41;;;8.70;100.00
18275;BME280;19470;49.322;7.218;2023-01-16T01:32:47;97147.91;;;8.67;100.00
18275;BME280;19470;49.322;7.218;2023-01-16T01:35:13;97142.38;;;8.64;100.00
18275;BME280;19470;49.322;7.218;2023-01-16T01:37:41;97123.88;;;8.89;100.00
18275;BME280;19470;49.322;7.218;2023-01-16T01:40:09;97130.47;;;8.82;100.00
18275;BME280;19470;49.322;7.218;2023-01-16T01:42:36;97112.03;;;8.72;100.00
18275;BME280;19470;49.322;7.218;2023-01-16T01:45:14;97119.38;;;8.75;100.00
18275;BME280;19470;49.322;7.218;2023-01-16T01:47:45;97113.13;;;8.45;100.00
18275;BME280;19470;49.322;7.218;2023-01-16T01:50:22;97104.53;;;9.09;100.00
18275;BME280;19470;49.322;7.218;2023-01-16T01:52:53;97095.31;;;8.96;100.00
18275;BME280;19470;49.322;7.218;2023-01-16T01:55:27;97097.47;;;8.79;100.00
18275;BME280;19470;49.322;7.218;2023-01-16T01:57:57;97089.66;;;9.29;100.00
18275;BME280;19470;49.322;7.218;2023-01-16T02:00:26;97086.47;;;9.27;100.00
18275;BME280;19470;49.322;7.218;2023-01-16T02:02:57;97073.09;;;9.08;100.00
18275;BME280;19470;49.322;7.218;2023-01-16T02:05:30;97075.25;;;9.50;100.00
18275;BME280;19470;49.322;7.218;2023-01-16T02:08:00;97075.97;;;9.11;100.00
18275;BME280;19470;49.322;7.218;2023-01-16T02:10:33;97057.28;;;9.03;100.00
18275;BME280;19470;49.322;7.218;2023-01-16T02:13:01;97063.09;;;9.49;100.00
18275;BME280;19470;49.322;7.218;2023-01-16T02:15:28;97047.47;;;9.13;100.00
18275;BME280;19470;49.322;7.218;2023-01-16T02:18:01;97056.25;;;9.48;100.00
18275;BME280;19470;49.322;7.218;2023-01-16T02:20:54;97041.22;;;8.94;100.00
18275;BME280;19470;49.322;7.218;2023-01-16T02:23:43;97029.00;;;9.03;100.00
18275;BME280;19470;49.322;7.218;2023-01-16T02:26:42;97012.91;;;9.05;100.00
18275;BME280;19470;49.322;7.218;2023-01-16T02:29:28;97002.75;;;9.27;100.00
18275;BME280;19470;49.322;7.218;2023-01-16T02:32:08;96996.91;;;8.86;100.00
18275;BME280;19470;49.322;7.218;2023-01-16T02:34:49;96983.72;;;8.86;100.00
18275;BME280;19470;49.322;7.218;2023-01-16T02:37:26;96973.44;;;9.63;100.00
18275;BME280;19470;49.322;7.218;2023-01-16T02:40:06;96964.13;;;8.92;100.00
18275;BME280;19470;49.322;7.218;2023-01-16T02:42:42;96968.91;;;8.90;100.00
18275;BME280;19470;49.322;7.218;2023-01-16T02:45:23;96957.47;;;9.05;100.00
18275;BME280;19470;49.322;7.218;2023-01-16T02:47:58;96946.81;;;9.20;100.00
18275;BME280;19470;49.322;7.218;2023-01-16T02:50:28;96956.38;;;9.11;100.00
18275;BME280;19470;49.322;7.218;2023-01-16T02:52:59;96942.56;;;8.75;100.00
18275;BME280;19470;49.322;7.218;2023-01-16T02:55:29;96931.16;;;8.94;100.00
18275;BME280;19470;49.322;7.218;2023-01-16T02:58:01;96920.75;;;9.03;100.00
18275;BME280;19470;49.322;7.218;2023-01-16T03:04:03;96898.56;;;9.09;100.00
18275;BME280;19470;49.322;7.218;2023-01-16T03:06:42;96900.06;;;8.81;100.00
18275;BME280;19470;49.322;7.218;2023-01-16T03:09:30;96878.88;;;9.26;100.00
18275;BME280;19470;49.322;7.218;2023-01-16T03:12:07;96879.22;;;9.48;100.00
18275;BME280;19470;49.322;7.218;2023-01-16T03:14:47;96864.84;;;9.30;100.00
18275;BME280;19470;49.322;7.218;2023-01-16T03:17:25;96860.22;;;9.75;100.00
18275;BME280;19470;49.322;7.218;2023-01-16T03:20:23;96837.66;;;9.30;100.00
18275;BME280;19470;49.322;7.218;2023-01-16T03:22:55;96839.91;;;9.17;100.00
18275;BME280;19470;49.322;7.218;2023-01-16T03:25:33;96835.44;;;8.74;100.00
18275;BME280;19470;49.322;7.218;2023-01-16T03:28:07;96826.44;;;8.80;100.00
18275;BME280;19470;49.322;7.218;2023-01-16T03:30:45;96819.50;;;8.94;100.00
18275;BME280;19470;49.322;7.218;2023-01-16T03:33:22;96813.34;;;9.33;100.00
18275;BME280;19470;49.322;7.218;2023-01-16T03:35:56;96802.81;;;9.28;100.00
18275;BME280;19470;49.322;7.218;2023-01-16T03:38:25;96797.13;;;9.15;100.00
18275;BME280;19470;49.322;7.218;2023-01-16T03:40:56;96788.00;;;9.32;100.00
18275;BME280;19470;49.322;7.218;2023-01-16T03:43:27;96782.78;;;9.21;100.00
18275;BME280;19470;49.322;7.218;2023-01-16T03:45:58;96779.00;;;9.04;100.00
18275;BME280;19470;49.322;7.218;2023-01-16T03:48:30;96772.16;;;9.32;100.00
18275;BME280;19470;49.322;7.218;2023-01-16T03:51:04;96757.28;;;9.12;100.00
18275;BME280;19470;49.322;7.218;2023-01-16T03:53:35;96750.09;;;9.17;100.00
18275;BME280;19470;49.322;7.218;2023-01-16T03:56:09;96737.63;;;8.99;100.00
18275;BME280;19470;49.322;7.218;2023-01-16T03:58:39;96729.44;;;9.25;100.00
18275;BME280;19470;49.322;7.218;2023-01-16T04:01:13;96718.63;;;9.21;100.00
18275;BME280;19470;49.322;7.218;2023-01-16T04:03:49;96725.06;;;8.86;100.00
18275;BME280;19470;49.322;7.218;2023-01-16T04:06:22;96721.66;;;9.09;100.00
18275;BME280;19470;49.322;7.218;2023-01-16T04:08:51;96711.53;;;9.16;100.00
18275;BME280;19470;49.322;7.218;2023-01-16T04:11:20;96700.44;;;9.19;100.00
18275;BME280;19470;49.322;7.218;2023-01-16T04:13:50;96690.88;;;9.47;100.00
18275;BME280;19470;49.322;7.218;2023-01-16T04:16:19;96678.78;;;9.65;97.35
18275;BME280;19470;49.322;7.218;2023-01-16T04:18:48;96677.03;;;9.08;100.00
18275;BME280;19470;49.322;7.218;2023-01-16T04:21:15;96667.03;;;8.81;100.00
18275;BME280;19470;49.322;7.218;2023-01-16T04:23:43;96669.41;;;9.06;100.00
18275;BME280;19470;49.322;7.218;2023-01-16T04:26:10;96649.06;;;9.07;100.00
18275;BME280;19470;49.322;7.218;2023-01-16T04:28:36;96650.56;;;9.18;100.00
18275;BME280;19470;49.322;7.218;2023-01-16T04:31:03;96632.69;;;9.10;100.00
18275;BME280;19470;49.322;7.218;2023-01-16T04:33:30;96614.88;;;8.96;100.00
18275;BME280;19470;49.322;7.218;2023-01-16T04:35:56;96608.19;;;9.28;98.19
18275;BME280;19470;49.322;7.218;2023-01-16T04:38:23;96595.69;;;8.91;100.00
18275;BME280;19470;49.322;7.218;2023-01-16T04:40:53;96590.53;;;9.24;100.00
18275;BME280;19470;49.322;7.218;2023-01-16T04:43:20;96585.50;;;9.46;97.32
18275;BME280;19470;49.322;7.218;2023-01-16T04:45:47;96567.47;;;9.67;95.83
18275;BME280;19470;49.322;7.218;2023-01-16T04:48:13;96559.94;;;9.41;96.65
18275;BME280;19470;49.322;7.218;2023-01-16T04:50:39;96539.44;;;10.04;91.72
18275;BME280;19470;49.322;7.218;2023-01-16T04:53:06;96546.78;;;10.20;90.90
18275;BME280;19470;49.322;7.218;2023-01-16T04:55:32;96524.94;;;9.50;95.38
18275;BME280;19470;49.322;7.218;2023-01-16T04:58:00;96528.94;;;9.09;98.32
18275;BME280;19470;49.322;7.218;2023-01-16T05:00:27;96518.59;;;9.83;93.00
18275;BME280;19470;49.322;7.218;2023-01-16T05:02:53;96496.44;;;9.98;91.46
18275;BME280;19470;49.322;7.218;2023-01-16T05:05:20;96486.84;;;8.99;96.10
18275;BME280;19470;49.322;7.218;2023-01-16T05:07:46;96484.38;;;8.84;99.18
18275;BME280;19470;49.322;7.218;2023-01-16T05:10:33;96461.94;;;9.05;98.37
18275;BME280;19470;49.322;7.218;2023-01-16T05:13:01;96446.22;;;9.65;93.47
18275;BME280;19470;49.322;7.218;2023-01-16T05:15:27;96441.38;;;9.02;97.66
18275;BME280;19470;49.322;7.218;2023-01-16T05:17:54;96440.78;;;9.43;93.58
18275;BME280;19470;49.322;7.218;2023-01-16T05:20:22;96432.38;;;9.03;96.11
18275;BME280;19470;49.322;7.218;2023-01-16T05:22:48;96410.63;;;8.92;96.80
18275;BME280;19470;49.322;7.218;2023-01-16T05:25:15;96400.50;;;8.43;99.72
18275;BME280;19470;49.322;7.218;2023-01-16T05:27:41;96388.63;;;9.16;94.92
18275;BME280;19470;49.322;7.218;2023-01-16T05:30:11;96365.75;;;9.11;93.78
18275;BME280;19470;49.322;7.218;2023-01-16T05:32:37;96375.69;;;9.01;93.84
18275;BME280;19470;49.322;7.218;2023-01-16T05:35:04;96355.91;;;9.31;93.65
18275;BME280;19470;49.322;7.218;2023-01-16T05:37:31;96352.78;;;8.96;93.60
18275;BME280;19470;49.322;7.218;2023-01-16T05:39:57;96343.88;;;9.25;93.91
18275;BME280;19470;49.322;7.218;2023-01-16T05:42:26;96344.44;;;8.70;96.24
18275;BME280;19470;49.322;7.218;2023-01-16T05:51:37;96313.47;;;9.27;92.10
18275;BME280;19470;49.322;7.218;2023-01-16T05:54:04;96313.16;;;9.15;92.36
18275;BME280;19470;49.322;7.218;2023-01-16T05:56:30;96305.75;;;9.31;91.35
18275;BME280;19470;49.322;7.218;2023-01-16T05:58:56;96296.75;;;9.32;90.94
18275;BME280;19470;49.322;7.218;2023-01-16T06:01:23;96292.97;;;9.65;88.86
18275;BME280;19470;49.322;7.218;2023-01-16T06:03:49;96286.00;;;9.42;90.15
18275;BME280;19470;49.322;7.218;2023-01-16T06:06:16;96284.34;;;9.87;88.87
18275;BME280;19470;49.322;7.218;2023-01-16T06:08:45;96271.31;;;9.08;91.24
18275;BME280;19470;49.322;7.218;2023-01-16T06:11:12;96272.84;;;9.09;93.18
18275;BME280;19470;49.322;7.218;2023-01-16T06:13:38;96272.66;;;8.16;96.26
18275;BME280;19470;49.322;7.218;2023-01-16T06:16:05;96260.16;;;9.25;90.15
18275;BME280;19470;49.322;7.218;2023-01-16T06:18:32;96261.53;;;9.23;89.45
18275;BME280;19470;49.322;7.218;2023-01-16T06:20:58;96259.94;;;8.94;90.75
18275;BME280;19470;49.322;7.218;2023-01-16T06:23:25;96248.25;;;8.81;93.06
18275;BME280;19470;49.322;7.218;2023-01-16T06:25:53;96252.88;;;9.03;91.35
18275;BME280;19470;49.322;7.218;2023-01-16T06:28:19;96238.16;;;9.30;90.02
18275;BME280;19470;49.322;7.218;2023-01-16T06:30:50;96238.53;;;8.06;96.16
18275;BME280;19470;49.322;7.218;2023-01-16T06:33:17;96234.91;;;8.02;95.66
18275;BME280;19470;49.322;7.218;2023-01-16T06:35:43;96215.97;;;8.38;95.94
18275;BME280;19470;49.322;7.218;2023-01-16T06:38:09;96202.41;;;8.77;92.77
18275;BME280;19470;49.322;7.218;2023-01-16T06:40:36;96205.59;;;8.60;92.15
18275;BME280;19470;49.322;7.218;2023-01-16T06:43:04;96194.16;;;8.13;96.21
18275;BME280;19470;49.322;7.218;2023-01-16T06:45:30;96193.72;;;8.44;94.99
18275;BME280;19470;49.322;7.218;2023-01-16T06:47:57;96189.72;;;8.93;90.69
18275;BME280;19470;49.322;7.218;2023-01-16T06:50:23;96187.59;;;8.95;92.86
18275;BME280;19470;49.322;7.218;2023-01-16T06:52:50;96176.16;;;8.53;93.40
18275;BME280;19470;49.322;7.218;2023-01-16T06:55:16;96167.63;;;8.89;89.85
18275;BME280;19470;49.322;7.218;2023-01-16T06:57:43;96161.75;;;8.78;91.96
18275;BME280;19470;49.322;7.218;2023-01-16T07:00:12;96155.84;;;8.54;93.70
18275;BME280;19470;49.322;7.218;2023-01-16T07:02:39;96148.91;;;8.44;93.03
18275;BME280;19470;49.322;7.218;2023-01-16T07:05:06;96147.41;;;8.70;91.34
18275;BME280;19470;49.322;7.218;2023-01-16T07:07:34;96142.97;;;8.80;89.68
18275;BME280;19470;49.322;7.218;2023-01-16T07:10:00;96143.31;;;8.45;92.74
18275;BME280;19470;49.322;7.218;2023-01-16T07:12:27;96144.97;;;8.23;95.75
18275;BME280;19470;49.322;7.218;2023-01-16T07:14:53;96141.63;;;8.96;92.65
18275;BME280;19470;49.322;7.218;2023-01-16T07:17:38;96134.34;;;8.60;95.10
18275;BME280;19470;49.322;7.218;2023-01-16T07:20:22;96119.06;;;8.90;94.20
18275;BME280;19470;49.322;7.218;2023-01-16T07:23:15;96109.75;;;7.67;100.00
18275;BME280;19470;49.322;7.218;2023-01-16T07:25:42;96099.25;;;7.81;100.00
18275;BME280;19470;49.322;7.218;2023-01-16T07:28:09;96094.06;;;7.76;100.00
18275;BME280;19470;49.322;7.218;2023-01-16T07:30:36;96081.53;;;7.67;100.00
18275;BME280;19470;49.322;7.218;2023-01-16T07:33:04;96072.72;;;7.58;100.00
18275;BME280;19470;49.322;7.218;2023-01-16T07:35:30;96088.22;;;7.79;100.00
18275;BME280;19470;49.322;7.218;2023-01-16T07:37:57;96083.44;;;7.62;100.00
18275;BME280;19470;49.322;7.218;2023-01-16T07:40:23;96093.66;;;7.68;100.00
18275;BME280;19470;49.322;7.218;2023-01-16T07:42:50;96090.94;;;7.55;100.00
18275;BME280;19470;49.322;7.218;2023-01-16T07:45:17;96098.47;;;7.24;100.00
18275;BME280;19470;49.322;7.218;2023-01-16T07:47:43;96085.75;;;7.68;100.00
18275;BME280;19470;49.322;7.218;2023-01-16T07:50:11;96083.03;;;7.36;100.00
18275;BME280;19470;49.322;7.218;2023-01-16T07:52:38;96065.06;;;7.76;100.00
18275;BME280;19470;49.322;7.218;2023-01-16T07:55:05;96091.94;;;7.59;100.00
18275;BME280;19470;49.322;7.218;2023-01-16T07:57:31;96074.84;;;7.56;100.00
18275;BME280;19470;49.322;7.218;2023-01-16T08:00:01;96064.72;;;6.88;100.00
18275;BME280;19470;49.322;7.218;2023-01-16T08:02:27;96053.56;;;7.34;100.00
18275;BME280;19470;49.322;7.218;2023-01-16T08:11:54;96021.50;;;7.83;100.00
18275;BME280;19470;49.322;7.218;2023-01-16T08:14:21;96007.91;;;7.76;100.00
18275;BME280;19470;49.322;7.218;2023-01-16T08:16:47;96011.56;;;7.94;100.00
18275;BME280;19470;49.322;7.218;2023-01-16T08:19:14;96003.41;;;8.09;100.00
18275;BME280;19470;49.322;7.218;2023-01-16T08:21:40;95998.19;;;8.51;100.00
18275;BME280;19470;49.322;7.218;2023-01-16T08:24:07;95992.47;;;8.02;100.00
18275;BME280;19470;49.322;7.218;2023-01-16T08:26:34;95981.59;;;8.36;100.00
18275;BME280;19470;49.322;7.218;2023-01-16T08:29:03;95988.53;;;7.86;100.00
18275;BME280;19470;49.322;7.218;2023-01-16T08:31:29;95981.63;;;8.17;100.00
18275;BME280;19470;49.322;7.218;2023-01-16T08:33:56;95976.09;;;8.33;100.00
18275;BME280;19470;49.322;7.218;2023-01-16T08:36:22;95966.28;;;7.78;100.00
18275;BME280;19470;49.322;7.218;2023-01-16T08:38:50;95965.44;;;7.97;100.00
18275;BME280;19470;49.322;7.218;2023-01-16T08:41:17;95972.31;;;7.79;100.00
18275;BME280;19470;49.322;7.218;2023-01-16T08:44:02;95959.94;;;7.47;100.00
18275;BME280;19470;49.322;7.218;2023-01-16T08:46:52;95942.72;;;8.28;100.00
18275;BME280;19470;49.322;7.218;2023-01-16T08:49:38;95940.75;;;8.20;100.00
18275;BME280;19470;49.322;7.218;2023-01-16T08:52:22;95953.41;;;8.04;100.00
18275;BME280;19470;49.322;7.218;2023-01-16T08:54:49;95936.84;;;8.31;100.00
18275;BME280;19470;49.322;7.218;2023-01-16T08:57:15;95934.13;;;8.50;100.00
18275;BME280;19470;49.322;7.218;2023-01-16T08:59:43;95923.56;;;8.50;100.00
18275;BME280;19470;49.322;7.218;2023-01-16T09:02:10;95930.41;;;8.24;100.00
18275;BME280;19470;49.322;7.218;2023-01-16T09:04:39;95926.47;;;8.76;100.00
18275;BME280;19470;49.322;7.218;2023-01-16T09:07:06;95910.66;;;8.35;100.00
18275;BME280;19470;49.322;7.218;2023-01-16T09:09:32;95932.50;;;7.80;100.00
18275;BME280;19470;49.322;7.218;2023-01-16T09:11:59;95934.69;;;8.19;100.00
18275;BME280;19470;49.322;7.218;2023-01-16T09:14:45;95921.97;;;8.77;100.00
18275;BME280;19470;49.322;7.218;2023-01-16T09:17:11;95943.41;;;8.48;100.00
18275;BME280;19470;49.322;7.218;2023-01-16T09:19:38;95932.53;;;8.35;100.00
18275;BME280;19470;49.322;7.218;2023-01-16T09:22:04;95892.81;;;8.82;100.00
18275;BME280;19470;49.322;7.218;2023-01-16T09:24:31;95921.63;;;8.42;100.00
18275;BME280;19470;49.322;7.218;2023-01-16T09:26:58;95897.91;;;8.78;100.00
18275;BME280;19470;49.322;7.218;2023-01-16T09:29:24;95918.06;;;8.60;100.00
18275;BME280;19470;49.322;7.218;2023-01-16T09:31:53;95898.75;;;8.51;100.00
18275;BME280;19470;49.322;7.218;2023-01-16T09:34:19;95896.56;;;8.81;100.00
18275;BME280;19470;49.322;7.218;2023-01-16T09:36:46;95881.56;;;8.90;100.00
18275;BME280;19470;49.322;7.218;2023-01-16T09:39:12;95893.31;;;9.06;100.00
18275;BME280;19470;49.322;7.218;2023-01-16T09:41:46;95866.22;;;8.92;100.00
18275;BME280;19470;49.322;7.218;2023-01-16T09:44:32;95877.22;;;8.72;100.00
18275;BME280;19470;49.322;7.218;2023-01-16T09:47:00;95863.19;;;8.62;100.00
18275;BME280;19470;49.322;7.218;2023-01-16T09:49:31;95847.13;;;8.73;100.00
18275;BME280;19470;49.322;7.218;2023-01-16T09:52:02;95856.63;;;9.18;100.00
18275;BME280;19470;49.322;7.218;2023-01-16T09:54:49;95855.03;;;9.40;100.00
18275;BME280;19470;49.322;7.218;2023-01-16T09:57:36;95839.25;;;8.59;100.00
18275;BME280;19470;49.322;7.218;2023-01-16T10:00:23;95826.72;;;9.32;100.00
18275;BME280;19470;49.322;7.218;2023-01-16T10:02:52;95845.94;;;9.24;100.00
18275;BME280;19470;49.322;7.218;2023-01-16T10:05:19;95819.16;;;9.16;100.00
18275;BME280;19470;49.322;7.218;2023-01-16T10:07:51;95838.13;;;9.18;100.00
18275;BME280;19470;49.322;7.218;2023-01-16T10:10:42;95832.06;;;9.49;100.00
18275;BME280;19470;49.322;7.218;2023-01-16T10:13:41;95791.84;;;8.90;100.00
18275;BME280;19470;49.322;7.218;2023-01-16T10:16:17;95801.47;;;9.48;100.00
18275;BME280;19470;49.322;7.218;2023-01-16T10:18:54;95796.97;;;9.48;100.00
18275;BME280;19470;49.322;7.218;2023-01-16T10:21:37;95785.16;;;9.46;100.00
18275;BME280;19470;49.322;7.218;2023-01-16T10:24:12;95779.75;;;9.20;100.00
18275;BME280;19470;49.322;7.218;2023-01-16T10:26:56;95768.75;;;9.66;100.00
18275;BME280;19470;49.322;7.218;2023-01-16T10:29:25;95764.84;;;9.64;100.00
18275;BME280;19470;49.322;7.218;2023-01-16T10:32:00;95741.06;;;9.55;100.00
18275;BME280;19470;49.322;7.218;2023-01-16T10:34:33;95739.44;;;9.94;100.00
18275;BME280;19470;49.322;7.218;2023-01-16T10:37:03;95736.75;;;9.77;100.00
18275;BME280;19470;49.322;7.218;2023-01-16T10:39:33;95718.88;;;9.25;100.00
18275;BME280;19470;49.322;7.218;2023-01-16T10:42:08;95725.44;;;9.93;100.00
18275;BME280;19470;49.322;7.218;2023-01-16T10:44:58;95717.03;;;9.91;100.00
18275;BME280;19470;49.322;7.218;2023-01-16T10:47:43;95698.72;;;10.04;99.58
18275;BME280;19470;49.322;7.218;2023-01-16T10:50:29;95700.97;;;9.53;100.00
18275;BME280;19470;49.322;7.218;2023-01-16T10:52:55;95704.44;;;9.80;100.00
18275;BME280;19470;49.322;7.218;2023-01-16T10:55:22;95694.78;;;9.66;100.00
18275;BME280;19470;49.322;7.218;2023-01-16T10:57:52;95691.22;;;10.06;99.06
18275;BME280;19470;49.322;7.218;2023-01-16T11:00:20;95684.84;;;9.72;100.00
18275;BME280;19470;49.322;7.218;2023-01-16T11:02:50;95689.66;;;9.87;98.76
18275;BME280;19470;49.322;7.218;2023-01-16T11:05:22;95659.50;;;10.23;95.12
18275;BME280;19470;49.322;7.218;2023-01-16T11:07:53;95660.75;;;9.99;96.49
18275;BME280;19470;49.322;7.218;2023-01-16T11:10:20;95640.88;;;9.85;100.00
18275;BME280;19470;49.322;7.218;2023-01-16T11:12:48;95647.38;;;9.61;99.96
18275;BME280;19470;49.322;7.218;2023-01-16T11:15:33;95633.25;;;10.27;95.99
18275;BME280;19470;49.322;7.218;2023-01-16T11:18:33;95633.72;;;9.85;97.71
18275;BME280;19470;49.322;7.218;2023-01-16T11:21:01;95623.91;;;9.51;100.00
18275;BME280;19470;49.322;7.218;2023-01-16T11:23:42;95611.97;;;10.70;93.14
18275;BME280;19470;49.322;7.218;2023-01-16T11:26:09;95614.13;;;10.04;97.13
18275;BME280;19470;49.322;7.218;2023-01-16T11:28:37;95601.22;;;9.93;96.58
18275;BME280;19470;49.322;7.218;2023-01-16T11:31:09;95598.25;;;10.77;95.66
18275;BME280;19470;49.322;7.218;2023-01-16T11:33:40;95586.03;;;10.55;93.48
18275;BME280;19470;49.322;7.218;2023-01-16T11:36:11;95577.22;;;10.16;95.23
18275;BME280;19470;49.322;7.218;2023-01-16T11:38:45;95555.38;;;9.72;96.12
18275;BME280;19470;49.322;7.218;2023-01-16T11:41:17;95552.22;;;10.31;94.22
18275;BME280;19470;49.322;7.218;2023-01-16T11:43:44;95582.41;;;9.86;92.98
18275;BME280;19470;49.322;7.218;2023-01-16T11:46:34;95580.53;;;9.78;100.00
18275;BME280;19470;49.322;7.218;2023-01-16T11:49:04;95575.13;;;9.75;100.00
18275;BME280;19470;49.322;7.218;2023-01-16T11:51:39;95551.63;;;9.21;100.00
18275;BME280;19470;49.322;7.218;2023-01-16T11:54:12;95563.28;;;9.29;100.00
18275;BME280;19470;49.322;7.218;2023-01-16T11:56:48;95541.84;;;9.30;100.00
18275;BME280;19470;49.322;7.218;2023-01-16T11:59:27;95524.16;;;9.31;100.00
18275;BME280;19470;49.322;7.218;2023-01-16T12:02:02;95522.75;;;9.33;100.00
18275;BME280;19470;49.322;7.218;2023-01-16T12:04:53;95512.97;;;9.34;100.00
18275;BME280;19470;49.322;7.218;2023-01-16T12:07:43;95503.75;;;9.83;100.00
18275;BME280;19470;49.322;7.218;2023-01-16T12:10:24;95499.63;;;9.39;100.00
18275;BME280;19470;49.322;7.218;2023-01-16T12:13:00;95490.47;;;9.36;100.00
18275;BME280;19470;49.322;7.218;2023-01-16T12:15:53;95483.28;;;9.63;100.00
18275;BME280;19470;49.322;7.218;2023-01-16T12:18:30;95488.22;;;9.73;100.00
18275;BME280;19470;49.322;7.218;2023-01-16T12:21:01;95477.38;;;9.66;100.00
18275;BME280;19470;49.322;7.218;2023-01-16T12:23:47;95498.53;;;9.48;100.00
18275;BME280;19470;49.322;7.218;2023-01-16T12:26:21;95463.84;;;9.59;100.00
18275;BME280;19470;49.322;7.218;2023-01-16T12:29:12;95469.03;;;9.38;100.00
18275;BME280;19470;49.322;7.218;2023-01-16T12:31:53;95467.16;;;9.38;100.00
18275;BME280;19470;49.322;7.218;2023-01-16T12:34:33;95450.53;;;9.38;100.00
18275;BME280;19470;49.322;7.218;2023-01-16T12:37:25;95437.09;;;9.78;100.00
18275;BME280;19470;49.322;7.218;2023-01-16T12:40:05;95447.72;;;9.60;100.00
18275;BME280;19470;49.322;7.218;2023-01-16T12:42:49;95408.00;;;9.13;100.00
18275;BME280;19470;49.322;7.218;2023-01-16T12:45:55;95418.88;;;9.93;100.00
18275;BME280;19470;49.322;7.218;2023-01-16T12:48:50;95409.44;;;9.84;98.41
18275;BME280;19470;49.322;7.218;2023-01-16T12:51:26;95400.97;;;9.99;99.52
18275;BME280;19470;49.322;7.218;2023-01-16T12:54:16;95409.34;;;10.01;97.10
18275;BME280;19470;49.322;7.218;2023-01-16T12:56:57;95379.59;;;10.13;97.86
18275;BME280;19470;49.322;7.218;2023-01-16T12:59:30;95371.88;;;10.58;94.06
18275;BME280;19470;49.322;7.218;2023-01-16T13:02:12;95362.25;;;10.54;94.61
18275;BME280;19470;49.322;7.218;2023-01-16T13:04:46;95350.41;;;10.60;92.02
18275;BME280;19470;49.322;7.218;2023-01-16T13:07:16;95331.63;;;10.73;92.87
18275;BME280;19470;49.322;7.218;2023-01-16T13:09:47;95322.22;;;10.13;93.58
18275;BME280;19470;49.322;7.218;2023-01-16T13:12:17;95336.44;;;10.30;92.46
18275;BME280;19470;49.322;7.218;2023-01-16T13:15:06;95333.94;;;10.33;91.92
18275;BME280;19470;49.322;7.218;2023-01-16T13:17:41;95317.94;;;10.71;92.72
18275;BME280;19470;49.322;7.218;2023-01-16T13:20:11;95302.47;;;10.61;90.33
18275;BME280;19470;49.322;7.218;2023-01-16T13:22:42;95302.59;;;10.14;92.71
18275;BME280;19470;49.322;7.218;2023-01-16T13:25:17;95290.53;;;10.34;94.88
18275;BME280;19470;49.322;7.218;2023-01-16T13:27:49;95288.19;;;10.74;94.01
18275;BME280;19470;49.322;7.218;2023-01-16T13:30:21;95282.91;;;10.12;96.16
18275;BME280;19470;49.322;7.218;2023-01-16T13:32:51;95272.75;;;9.93;98.67
18275;BME280;19470;49.322;7.218;2023-01-16T13:35:22;95253.03;;;9.61;100.00
18275;BME280;19470;49.322;7.218;2023-01-16T13:37:58;95245.84;;;9.91;100.00
18275;BME280;19470;49.322;7.218;2023-01-16T13:40:49;95252.34;;;9.72;100.00
18275;BME280;19470;49.322;7.218;2023-01-16T13:43:21;95226.38;;;9.75;100.00
18275;BME280;19470;49.322;7.218;2023-01-16T13:46:20;95234.09;;;9.20;100.00